Altoona Blair County Airport
KAOO : now visible

Airfield :











YOU CAN JOIN US ON...

 
LOGIN :

Register | Disclaimer

   EN    FR    IT 

 









Legend :    VFR   Marginal VFR   IFR   Intensive IFR   Very Intensive IFR
Visi :
Ceiling :
>= 8 km
>= 3000ft
5 to 8 km
1000 to 3000 ft
1500m to 5 km
500 to 1000 ft
800 to 1500m
200 to 500 ft
< 800m
< 200 ft
Symbols :   Thunderstorms  Fog  Heavy snow  Heavy precipitations  Wind > 20 kt







- Airport Elevation : 1503 ft
- IATA code : AOO


KAOO - Altoona Blair County

CURRENT METAR :
  • 191953Z AUTO 11006KT 4SM -RA BR SCT019 BKN027 OVC050 18/16 A2958 RMK AO2 PRESFR SLP007 P0016 T01780161

EXPIRED METARs :
  • 191950Z AUTO 10006KT 4SM -RA BR SCT019 BKN029 OVC050 18/16 A2958 RMK AO2 P0015
  • 191939Z AUTO 00000KT 1 1/2SM +RA BR FEW007 BKN043 OVC050 17/16 A2960 RMK AO2 P0014 T01720161
  • 191931Z AUTO 10004KT 2 1/2SM RA BR FEW019 BKN043 OVC050 18/16 A2960 RMK AO2 PRESFR P0008 T01780161
  • 191853Z AUTO VRB05KT 7SM -RA FEW030 BKN035 OVC090 18/16 A2964 RMK AO2 SLP028 P0007 T01780156
  • 191753Z AUTO 16011KT 10SM -RA FEW080 OVC095 19/15 A2967 RMK AO2 RAB1656 SLP039 P0001 60003 T01890150 10200 20178 58004

TAF KAOO
Valid from the 19 at 20:00 until the 20 at 18:00 UTC


191945Z 1920/2018 VRB03KT 2SM RA SCT007 BKN040 OVC050
FM192030 14007KT 3SM -SHRA VCTS SCT015 BKN025CB
FM192300 16004KT 3SM -SHRA VCTS BKN007 OVC015CB
FM200100 17005KT 4SM -RA BR OVC007
FM200700 15011KT P6SM VCSH OVC015
FM201500 17011KT P6SM VCSH BKN050
KZOB FIR / North America



MET'MAP, your aeronautical weather chart ! - Copyright ORBIFLY December 2007 - Disclaimer

ORBIFLY MET'MAP TEAM :

Programming & Development : Alexandra Zaïnal
Concept & Development : Baudouin d'Aumeries
Co-Development & Prog : Marc-Olivier Méhu
Technical & hardware support : Manuel Goepfert

Contact : metmap@orbifly.com




SOURCES & CREDITS :

   NOAA       Earth
Advisory